createdAt,value
2018-11-25T00:00:23.762Z,100775.05
2018-11-25T00:01:29.385Z,100768.75
2018-11-25T00:02:34.850Z,100770.03
2018-11-25T00:03:40.277Z,100766.23
2018-11-25T00:04:45.731Z,100771.73
2018-11-25T00:05:51.159Z,100772.17
2018-11-25T00:06:56.718Z,100769.63
2018-11-25T00:08:19.068Z,100770.08
2018-11-25T00:09:47.443Z,100772.56
2018-11-25T00:10:55.055Z,100768.35
2018-11-25T00:12:00.859Z,100775.98
2018-11-25T00:13:06.607Z,100767.55
2018-11-25T00:14:12.221Z,100774.67
2018-11-25T00:15:17.798Z,100774.25
2018-11-25T00:16:23.265Z,100771.31
2018-11-25T00:17:29.198Z,100774.27
2018-11-25T00:18:34.763Z,100768.34
2018-11-25T00:19:40.261Z,100772.98
2018-11-25T00:20:45.711Z,100768.77
2018-11-25T00:21:51.344Z,100770.47
2018-11-25T00:22:56.761Z,100771.28
2018-11-25T00:24:19.490Z,100768.77
2018-11-25T00:25:25.038Z,100775.53
2018-11-25T00:26:30.575Z,100765.86
2018-11-25T00:27:37.631Z,100772.58
2018-11-25T00:28:45.596Z,100776.39
2018-11-25T00:29:51.139Z,100771.73
2018-11-25T00:30:56.603Z,100774.69
2018-11-25T00:32:02.465Z,100771.75
2018-11-25T00:33:08.593Z,100769.17
2018-11-25T00:34:23.579Z,100770.88
2018-11-25T00:35:29.162Z,100770.47
2018-11-25T00:36:34.580Z,100779.75
2018-11-25T00:37:43.330Z,100778.00
2018-11-25T00:38:45.771Z,100775.49
2018-11-25T00:39:51.195Z,100771.27
2018-11-25T00:40:56.620Z,100770.84
2018-11-25T00:42:02.075Z,100770.41
2018-11-25T00:43:07.850Z,100771.70
2018-11-25T00:44:13.347Z,100772.55
2018-11-25T00:45:20.487Z,100769.16
2018-11-25T00:46:25.931Z,100767.91
2018-11-25T00:47:31.420Z,100767.49
2018-11-25T00:48:36.863Z,100761.98
2018-11-25T00:49:42.342Z,100767.48
2018-11-25T00:50:47.854Z,100764.53
2018-11-25T00:51:53.361Z,100770.45
2018-11-25T00:52:58.933Z,100764.95
2018-11-25T00:54:04.414Z,100769.17
2018-11-25T00:55:14.888Z,100768.30
2018-11-25T00:56:20.340Z,100769.61
2018-11-25T00:57:25.822Z,100770.04
2018-11-25T00:58:31.351Z,100767.47
2018-11-25T00:59:36.874Z,100770.39
2018-11-25T01:00:52.716Z,100771.25
2018-11-25T01:02:13.315Z,100772.08
2018-11-25T01:03:19.064Z,100769.11
2018-11-25T01:04:24.554Z,100772.50
2018-11-25T01:05:30.118Z,100770.39
2018-11-25T01:06:35.703Z,100764.50
2018-11-25T01:07:41.294Z,100765.75
2018-11-25T01:08:46.823Z,100770.38
2018-11-25T01:09:52.396Z,100764.89
2018-11-25T01:10:57.955Z,100761.92
2018-11-25T01:12:03.411Z,100765.27
2018-11-25T01:13:08.942Z,100761.93
2018-11-25T01:14:14.431Z,100759.34
2018-11-25T01:15:19.869Z,100768.22
2018-11-25T01:16:25.572Z,100762.34
2018-11-25T01:17:31.046Z,100761.08
2018-11-25T01:18:36.590Z,100762.33
2018-11-25T01:19:42.052Z,100761.05
2018-11-25T01:20:47.686Z,100761.91
2018-11-25T01:21:53.257Z,100766.52
2018-11-25T01:22:58.833Z,100761.91
2018-11-25T01:24:04.330Z,100763.59
2018-11-25T01:25:11.351Z,100761.05
2018-11-25T01:26:16.818Z,100764.06
2018-11-25T01:27:22.506Z,100766.52
2018-11-25T01:28:28.002Z,100768.64
2018-11-25T01:29:33.491Z,100768.19
2018-11-25T01:30:39.032Z,100774.16
2018-11-25T01:31:44.527Z,100768.25
2018-11-25T01:32:50.216Z,100769.55
2018-11-25T01:33:55.826Z,100770.39
2018-11-25T01:35:01.379Z,100770.34
2018-11-25T01:36:06.971Z,100766.98
2018-11-25T01:37:12.454Z,100769.84
2018-11-25T01:38:17.916Z,100766.08
2018-11-25T01:39:23.451Z,100767.80
2018-11-25T01:40:28.986Z,100763.17
2018-11-25T01:41:34.546Z,100764.44
2018-11-25T01:42:40.083Z,100754.73
2018-11-25T01:43:45.719Z,100762.73
2018-11-25T01:44:51.261Z,100763.17
2018-11-25T01:45:56.719Z,100761.47
2018-11-25T01:47:02.218Z,100763.17
2018-11-25T01:48:07.712Z,100760.20
2018-11-25T01:49:13.293Z,100765.28
2018-11-25T01:50:19.274Z,100762.34
2018-11-25T01:51:24.956Z,100760.66
2018-11-25T01:52:30.485Z,100758.09
2018-11-25T01:53:35.995Z,100761.92
2018-11-25T01:54:41.577Z,100764.89
2018-11-25T01:55:47.378Z,100761.95
2018-11-25T01:56:52.817Z,100761.12
2018-11-25T01:57:58.371Z,100754.39
2018-11-25T01:59:03.811Z,100758.22
2018-11-25T02:00:21.880Z,100748.50
2018-11-25T02:01:27.347Z,100756.08
2018-11-25T02:02:32.871Z,100757.77
2018-11-25T02:03:38.439Z,100754.83
2018-11-25T02:04:43.853Z,100761.17
2018-11-25T02:05:49.454Z,100756.13
2018-11-25T02:06:54.983Z,100755.27
2018-11-25T02:08:00.541Z,100758.23
2018-11-25T02:09:08.813Z,100753.14
2018-11-25T02:10:17.121Z,100751.03
2018-11-25T02:11:22.571Z,100752.28
2018-11-25T02:12:28.065Z,100757.78
2018-11-25T02:13:33.571Z,100749.77
2018-11-25T02:14:39.301Z,100752.30
2018-11-25T02:15:44.933Z,100748.50
2018-11-25T02:16:53.236Z,100750.20
2018-11-25T02:18:03.127Z,100757.82
2018-11-25T02:19:09.182Z,100752.74
2018-11-25T02:20:24.253Z,100754.44
2018-11-25T02:21:29.830Z,100755.27
2018-11-25T02:22:35.323Z,100756.94
2018-11-25T02:23:40.842Z,100757.78
2018-11-25T02:24:46.286Z,100757.36
2018-11-25T02:25:52.740Z,100755.23
2018-11-25T02:26:58.196Z,100758.16
2018-11-25T02:28:03.645Z,100756.91
2018-11-25T02:29:09.154Z,100757.71
2018-11-25T02:30:16.183Z,100750.98
2018-11-25T02:31:21.638Z,100753.52
2018-11-25T02:32:27.163Z,100752.67
2018-11-25T02:33:32.738Z,100754.78
2018-11-25T02:34:38.239Z,100758.57
2018-11-25T02:35:43.669Z,100754.38
2018-11-25T02:36:49.303Z,100753.53
2018-11-25T02:37:54.850Z,100757.36
2018-11-25T02:39:00.272Z,100747.22
2018-11-25T02:40:07.928Z,100748.50
2018-11-25T02:41:13.527Z,100747.23
2018-11-25T02:42:19.169Z,100751.84
2018-11-25T02:43:24.653Z,100747.23
2018-11-25T02:44:30.176Z,100744.23
2018-11-25T02:45:35.735Z,100741.27
2018-11-25T02:46:41.159Z,100744.24
2018-11-25T02:47:46.741Z,100740.45
2018-11-25T02:48:52.255Z,100738.72
2018-11-25T02:49:57.746Z,100744.23
2018-11-25T02:51:03.291Z,100740.88
2018-11-25T02:52:08.777Z,100740.00
2018-11-25T02:53:14.357Z,100735.79
2018-11-25T02:54:19.873Z,100732.84
2018-11-25T02:55:26.658Z,100736.23
2018-11-25T02:56:32.175Z,100737.52
2018-11-25T02:57:37.737Z,100733.25
2018-11-25T02:58:43.238Z,100735.84
2018-11-25T02:59:48.761Z,100736.64
2018-11-25T03:00:54.254Z,100738.77
2018-11-25T03:01:59.748Z,100735.80
2018-11-25T03:03:05.427Z,100736.23
2018-11-25T03:04:10.939Z,100732.45
2018-11-25T03:05:16.542Z,100731.59
2018-11-25T03:06:22.099Z,100733.25
2018-11-25T03:07:27.662Z,100733.66
2018-11-25T03:08:33.199Z,100727.73
2018-11-25T03:09:38.659Z,100738.75
2018-11-25T03:10:44.192Z,100730.27
2018-11-25T03:11:49.750Z,100739.61
2018-11-25T03:12:55.305Z,100732.45
2018-11-25T03:14:00.794Z,100733.70
2018-11-25T03:15:08.922Z,100737.91
2018-11-25T03:16:14.343Z,100742.14
2018-11-25T03:17:19.982Z,100733.67
2018-11-25T03:18:25.476Z,100735.80
2018-11-25T03:19:30.900Z,100741.28
2018-11-25T03:20:36.482Z,100737.47
2018-11-25T03:21:41.895Z,100742.12
2018-11-25T03:22:47.441Z,100747.16
2018-11-25T03:23:52.906Z,100735.33
2018-11-25T03:24:58.428Z,100745.05
2018-11-25T03:26:03.913Z,100747.14
2018-11-25T03:27:09.350Z,100740.80
2018-11-25T03:28:14.813Z,100739.95
2018-11-25T03:29:20.338Z,100740.36
2018-11-25T03:30:25.942Z,100741.21
2018-11-25T03:31:31.515Z,100736.97
2018-11-25T03:32:36.985Z,100744.94
2018-11-25T03:33:42.592Z,100739.45
2018-11-25T03:34:48.056Z,100741.15
2018-11-25T03:35:53.766Z,100739.45
2018-11-25T03:36:59.225Z,100743.66
2018-11-25T03:38:04.778Z,100750.01
2018-11-25T03:39:10.335Z,100741.14
2018-11-25T03:40:18.049Z,100741.59
2018-11-25T03:41:26.015Z,100743.30
2018-11-25T03:42:31.461Z,100738.27
2018-11-25T03:43:37.911Z,100742.07
2018-11-25T03:44:43.383Z,100747.95
2018-11-25T03:45:48.964Z,100737.80
2018-11-25T03:46:54.450Z,100741.62
2018-11-25T03:47:59.887Z,100744.14
2018-11-25T03:49:05.663Z,100751.73
2018-11-25T03:50:12.617Z,100753.81
2018-11-25T03:51:18.028Z,100749.17
2018-11-25T03:52:23.508Z,100750.92
2018-11-25T03:53:29.027Z,100749.20
2018-11-25T03:54:34.903Z,100749.20
2018-11-25T03:55:40.459Z,100744.99
2018-11-25T03:56:45.954Z,100754.27
2018-11-25T03:57:51.445Z,100757.67
2018-11-25T03:58:56.971Z,100753.02
2018-11-25T04:00:02.472Z,100751.75
2018-11-25T04:01:08.090Z,100749.64
2018-11-25T04:02:13.563Z,100750.04
2018-11-25T04:03:19.018Z,100755.09
2018-11-25T04:04:24.544Z,100752.56
2018-11-25T04:05:30.036Z,100756.33
2018-11-25T04:06:35.534Z,100754.28
2018-11-25T04:07:41.092Z,100754.27
2018-11-25T04:08:46.594Z,100756.80
2018-11-25T04:09:52.120Z,100751.75
2018-11-25T04:10:57.781Z,100750.46
2018-11-25T04:12:03.257Z,100751.73
2018-11-25T04:13:09.038Z,100754.68
2018-11-25T04:14:14.536Z,100752.16
2018-11-25T04:15:20.546Z,100756.34
2018-11-25T04:16:26.081Z,100752.59
2018-11-25T04:17:31.940Z,100747.95
2018-11-25T04:18:37.413Z,100752.17
2018-11-25T04:19:42.997Z,100746.66
2018-11-25T04:20:48.528Z,100755.52
2018-11-25T04:21:53.974Z,100750.48
2018-11-25T04:22:59.659Z,100755.58
2018-11-25T04:24:05.119Z,100755.17
2018-11-25T04:25:11.905Z,100752.61
2018-11-25T04:26:17.446Z,100754.31
2018-11-25T04:27:22.954Z,100754.34
2018-11-25T04:28:28.651Z,100751.36
2018-11-25T04:29:34.187Z,100751.34
2018-11-25T04:30:39.702Z,100757.73
2018-11-25T04:31:45.241Z,100746.75
2018-11-25T04:32:51.746Z,100747.58
2018-11-25T04:33:57.258Z,100746.77
2018-11-25T04:35:02.717Z,100745.08
2018-11-25T04:36:08.130Z,100748.89
2018-11-25T04:37:13.619Z,100750.98
2018-11-25T04:38:19.175Z,100750.17
2018-11-25T04:39:24.683Z,100749.77
2018-11-25T04:40:30.598Z,100752.70
2018-11-25T04:41:36.106Z,100751.88
2018-11-25T04:42:41.637Z,100756.94
2018-11-25T04:43:47.311Z,100752.73
2018-11-25T04:44:52.757Z,100761.16
2018-11-25T04:45:58.212Z,100764.55
2018-11-25T04:47:03.655Z,100767.95
2018-11-25T04:48:09.077Z,100759.50
2018-11-25T04:49:14.794Z,100761.20
2018-11-25T04:50:22.574Z,100760.76
2018-11-25T04:51:28.110Z,100757.80
2018-11-25T04:52:33.627Z,100759.47
2018-11-25T04:53:39.138Z,100760.73
2018-11-25T04:54:44.634Z,100759.49
2018-11-25T04:55:50.143Z,100760.75
2018-11-25T04:56:55.570Z,100764.55
2018-11-25T04:58:01.297Z,100765.38
2018-11-25T04:59:06.914Z,100762.43
2018-11-25T05:00:13.478Z,100762.02
2018-11-25T05:01:18.983Z,100765.82
2018-11-25T05:02:24.510Z,100765.81
2018-11-25T05:03:30.075Z,100768.77
2018-11-25T05:04:35.627Z,100765.39
2018-11-25T05:05:41.175Z,100768.34
2018-11-25T05:06:46.686Z,100763.30
2018-11-25T05:07:52.210Z,100769.63
2018-11-25T05:08:57.788Z,100766.25
2018-11-25T05:10:03.831Z,100767.92
2018-11-25T05:11:09.358Z,100766.73
2018-11-25T05:12:14.836Z,100764.98
2018-11-25T05:13:20.341Z,100766.67
2018-11-25T05:14:25.852Z,100770.91
2018-11-25T05:15:31.349Z,100769.23
2018-11-25T05:16:36.853Z,100769.69
2018-11-25T05:17:42.567Z,100768.84
2018-11-25T05:18:48.079Z,100775.58
2018-11-25T05:19:53.494Z,100778.58
2018-11-25T05:20:59.106Z,100779.41
2018-11-25T05:22:04.702Z,100777.25
2018-11-25T05:23:10.127Z,100776.81
2018-11-25T05:24:15.751Z,100773.03
2018-11-25T05:25:21.544Z,100770.06
2018-11-25T05:26:27.071Z,100769.68
2018-11-25T05:27:32.579Z,100765.05
2018-11-25T05:28:38.069Z,100768.85
2018-11-25T05:29:43.528Z,100765.44
2018-11-25T05:30:49.059Z,100769.25
2018-11-25T05:31:54.560Z,100772.66
2018-11-25T05:33:00.338Z,100770.97
2018-11-25T05:34:06.306Z,100768.42
2018-11-25T05:35:24.345Z,100772.21
2018-11-25T05:36:29.832Z,100770.50
2018-11-25T05:37:35.378Z,100774.71
2018-11-25T05:38:41.147Z,100771.75
2018-11-25T05:39:46.713Z,100766.70
2018-11-25T05:40:52.189Z,100770.09
2018-11-25T05:41:57.716Z,100764.58
2018-11-25T05:43:03.186Z,100764.59
2018-11-25T05:44:08.714Z,100767.55
2018-11-25T05:45:17.481Z,100769.25
2018-11-25T05:46:23.056Z,100767.11
2018-11-25T05:47:28.573Z,100772.18
2018-11-25T05:48:34.079Z,100769.67
2018-11-25T05:49:39.523Z,100769.67
2018-11-25T05:50:45.116Z,100770.09
2018-11-25T05:51:50.657Z,100773.45
2018-11-25T05:52:56.196Z,100770.94
2018-11-25T05:54:01.688Z,100768.83
2018-11-25T05:55:09.306Z,100776.00
2018-11-25T05:56:14.799Z,100770.06
2018-11-25T05:57:20.386Z,100770.49
2018-11-25T05:58:25.903Z,100769.22
2018-11-25T05:59:31.388Z,100763.75
2018-11-25T06:00:36.875Z,100770.52
2018-11-25T06:01:42.507Z,100771.77
2018-11-25T06:02:47.954Z,100766.72
2018-11-25T06:03:53.560Z,100766.30
2018-11-25T06:04:59.044Z,100762.50
2018-11-25T06:06:04.658Z,100759.97
2018-11-25T06:07:10.172Z,100762.48
2018-11-25T06:08:15.708Z,100756.59
2018-11-25T06:09:21.202Z,100763.28
2018-11-25T06:10:26.754Z,100757.80
2018-11-25T06:11:32.249Z,100753.56
2018-11-25T06:12:37.738Z,100754.83
2018-11-25T06:13:43.242Z,100758.19
2018-11-25T06:14:48.758Z,100757.34
2018-11-25T06:15:54.186Z,100757.77
2018-11-25T06:16:59.882Z,100756.50
2018-11-25T06:18:05.698Z,100754.41
2018-11-25T06:19:11.187Z,100756.50
2018-11-25T06:20:18.418Z,100759.04
2018-11-25T06:21:23.875Z,100757.78
2018-11-25T06:22:29.446Z,100755.24
2018-11-25T06:23:34.890Z,100762.84
2018-11-25T06:24:40.346Z,100759.04
2018-11-25T06:25:45.885Z,100764.53
2018-11-25T06:26:51.473Z,100765.41
2018-11-25T06:27:56.989Z,100769.58
2018-11-25T06:29:02.386Z,100761.56
2018-11-25T06:30:11.369Z,100762.85
2018-11-25T06:31:16.803Z,100761.59
2018-11-25T06:32:22.217Z,100766.19
2018-11-25T06:33:27.841Z,100761.97
2018-11-25T06:34:33.333Z,100758.61
2018-11-25T06:35:38.851Z,100761.16
2018-11-25T06:36:44.375Z,100765.39
2018-11-25T06:37:49.910Z,100759.91
2018-11-25T06:38:55.395Z,100764.98
2018-11-25T06:40:00.974Z,100765.38
2018-11-25T06:41:06.974Z,100759.88
2018-11-25T06:42:12.561Z,100763.25
2018-11-25T06:43:18.023Z,100761.62
2018-11-25T06:44:23.557Z,100762.02
2018-11-25T06:45:30.654Z,100764.95
2018-11-25T06:46:36.221Z,100763.27
2018-11-25T06:47:41.738Z,100763.73
2018-11-25T06:48:54.571Z,100769.63
2018-11-25T06:49:52.939Z,100768.38
2018-11-25T06:50:58.374Z,100772.14
2018-11-25T06:52:03.912Z,100773.44
2018-11-25T06:53:09.352Z,100778.89
2018-11-25T06:54:14.792Z,100769.62
2018-11-25T06:55:20.342Z,100775.11
2018-11-25T06:56:27.527Z,100775.98
2018-11-25T06:57:31.421Z,100777.69
2018-11-25T06:58:36.936Z,100776.00
2018-11-25T06:59:42.662Z,100777.25
2018-11-25T07:00:48.609Z,100778.51
2018-11-25T07:01:54.217Z,100773.89
2018-11-25T07:02:59.730Z,100771.78
2018-11-25T07:04:05.235Z,100771.80
2018-11-25T07:05:11.122Z,100773.06
2018-11-25T07:06:16.622Z,100778.55
2018-11-25T07:07:22.185Z,100779.42
2018-11-25T07:08:27.638Z,100774.80
2018-11-25T07:09:33.215Z,100779.02
2018-11-25T07:10:38.794Z,100775.61
2018-11-25T07:11:44.293Z,100781.94
2018-11-25T07:12:52.284Z,100779.41
2018-11-25T07:13:57.828Z,100775.59
2018-11-25T07:15:03.349Z,100775.58
2018-11-25T07:16:09.004Z,100774.31
2018-11-25T07:17:14.758Z,100780.67
2018-11-25T07:18:20.184Z,100776.92
2018-11-25T07:19:25.634Z,100776.94
2018-11-25T07:20:31.171Z,100777.32
2018-11-25T07:21:36.714Z,100777.34
2018-11-25T07:22:42.347Z,100779.88
2018-11-25T07:23:47.812Z,100781.14
2018-11-25T07:24:53.391Z,100787.88
2018-11-25T07:25:58.897Z,100789.97
2018-11-25T07:27:04.499Z,100796.30
2018-11-25T07:28:18.432Z,100795.00
2018-11-25T07:29:15.407Z,100799.67
2018-11-25T07:30:28.850Z,100802.22
2018-11-25T07:31:34.407Z,100799.69
2018-11-25T07:32:39.864Z,100807.27
2018-11-25T07:33:45.465Z,100800.53
2018-11-25T07:34:50.891Z,100802.61
2018-11-25T07:35:56.444Z,100801.80
2018-11-25T07:37:01.934Z,100809.39
2018-11-25T07:38:07.721Z,100811.06
2018-11-25T07:39:13.263Z,100810.23
2018-11-25T07:40:21.949Z,100811.11
2018-11-25T07:41:27.420Z,100810.71
2018-11-25T07:42:32.919Z,100808.59
2018-11-25T07:43:38.474Z,100812.80
2018-11-25T07:44:43.953Z,100809.41
2018-11-25T07:45:49.550Z,100809.41
2018-11-25T07:46:55.300Z,100809.02
2018-11-25T07:48:00.754Z,100809.86
2018-11-25T07:49:06.487Z,100806.49
2018-11-25T07:50:13.444Z,100817.03
2018-11-25T07:51:18.957Z,100810.72
2018-11-25T07:52:24.437Z,100812.44
2018-11-25T07:53:29.998Z,100806.93
2018-11-25T07:54:35.492Z,100811.97
2018-11-25T07:55:41.054Z,100812.84
2018-11-25T07:56:46.579Z,100812.41
2018-11-25T07:57:54.029Z,100815.38
2018-11-25T07:58:59.507Z,100818.30
2018-11-25T08:00:06.226Z,100818.72
2018-11-25T08:01:11.806Z,100819.15
2018-11-25T08:02:17.350Z,100822.53
2018-11-25T08:03:22.982Z,100820.45
2018-11-25T08:04:28.423Z,100818.77
2018-11-25T08:05:33.928Z,100820.87
2018-11-25T08:06:39.454Z,100820.47
2018-11-25T08:07:44.942Z,100820.87
2018-11-25T08:08:50.391Z,100822.55
2018-11-25T08:09:55.919Z,100815.77
2018-11-25T08:11:01.509Z,100816.20
2018-11-25T08:12:07.157Z,100818.31
2018-11-25T08:13:12.666Z,100824.69
2018-11-25T08:14:18.079Z,100814.95
2018-11-25T08:15:23.748Z,100815.82
2018-11-25T08:16:29.302Z,100817.89
2018-11-25T08:17:34.813Z,100822.13
2018-11-25T08:18:40.198Z,100820.44
2018-11-25T08:19:45.674Z,100820.02
2018-11-25T08:20:51.275Z,100821.28
2018-11-25T08:21:56.766Z,100822.56
2018-11-25T08:23:02.254Z,100820.45
2018-11-25T08:24:07.962Z,100823.81
2018-11-25T08:25:15.297Z,100816.23
2018-11-25T08:26:20.985Z,100819.59
2018-11-25T08:27:26.477Z,100819.56
2018-11-25T08:28:31.998Z,100826.34
2018-11-25T08:29:37.539Z,100823.78
2018-11-25T08:30:43.083Z,100828.03
2018-11-25T08:31:48.506Z,100823.85
2018-11-25T08:32:54.469Z,100827.66
2018-11-25T08:34:00.010Z,100823.02
2018-11-25T08:35:06.036Z,100830.61
2018-11-25T08:36:11.464Z,100829.74
2018-11-25T08:37:16.909Z,100826.80
2018-11-25T08:38:22.315Z,100824.28
2018-11-25T08:39:28.422Z,100826.39
2018-11-25T08:40:33.363Z,100818.78
2018-11-25T08:41:39.132Z,100820.89
2018-11-25T08:42:44.751Z,100820.48
2018-11-25T08:43:50.258Z,100817.53
2018-11-25T08:44:55.707Z,100820.50
2018-11-25T08:46:01.191Z,100826.83
2018-11-25T08:47:07.110Z,100819.21
2018-11-25T08:48:12.537Z,100823.03
2018-11-25T08:49:18.083Z,100817.95
2018-11-25T08:50:23.528Z,100822.20
2018-11-25T08:51:29.015Z,100815.44
2018-11-25T08:52:34.497Z,100813.74
2018-11-25T08:53:40.126Z,100812.91
2018-11-25T08:54:45.626Z,100815.86
2018-11-25T08:55:51.128Z,100810.34
2018-11-25T08:56:56.584Z,100808.67
2018-11-25T08:58:02.046Z,100806.96
2018-11-25T08:59:07.834Z,100810.36
2018-11-25T09:00:16.775Z,100809.95
2018-11-25T09:01:22.252Z,100813.33
2018-11-25T09:02:27.778Z,100814.16
2018-11-25T09:03:33.355Z,100812.89
2018-11-25T09:04:39.039Z,100804.48
2018-11-25T09:05:44.495Z,100806.57
2018-11-25T09:06:50.031Z,100804.47
2018-11-25T09:07:55.520Z,100800.68
2018-11-25T09:09:01.049Z,100801.52
2018-11-25T09:10:13.402Z,100796.87
2018-11-25T09:11:18.869Z,100799.40
2018-11-25T09:12:24.258Z,100801.92
2018-11-25T09:13:29.794Z,100792.22
2018-11-25T09:14:35.226Z,100798.95
2018-11-25T09:15:40.763Z,100800.64
2018-11-25T09:16:46.272Z,100789.28
2018-11-25T09:17:51.845Z,100796.42
2018-11-25T09:18:57.293Z,100785.85
2018-11-25T09:20:02.834Z,100789.67
2018-11-25T09:21:08.612Z,100789.69
2018-11-25T09:22:14.166Z,100789.27
2018-11-25T09:23:19.630Z,100787.98
2018-11-25T09:24:25.121Z,100787.97
2018-11-25T09:25:32.395Z,100793.05
2018-11-25T09:26:37.869Z,100797.26
2018-11-25T09:27:43.440Z,100798.11
2018-11-25T09:28:48.986Z,100795.97
2018-11-25T09:29:54.418Z,100796.43
2018-11-25T09:30:59.946Z,100796.84
2018-11-25T09:32:06.276Z,100801.09
2018-11-25T09:33:11.798Z,100805.31
2018-11-25T09:34:17.339Z,100803.58
2018-11-25T09:35:23.254Z,100806.96
2018-11-25T09:36:28.958Z,100806.11
2018-11-25T09:37:34.490Z,100809.11
2018-11-25T09:38:39.915Z,100812.45
2018-11-25T09:39:45.469Z,100814.16
2018-11-25T09:40:55.151Z,100815.00
2018-11-25T09:41:57.030Z,100821.31
2018-11-25T09:43:02.734Z,100814.98
2018-11-25T09:44:08.407Z,100820.45
2018-11-25T09:45:17.335Z,100822.58
2018-11-25T09:46:22.942Z,100823.02
2018-11-25T09:47:28.410Z,100828.95
2018-11-25T09:48:33.981Z,100826.84
2018-11-25T09:49:39.479Z,100829.77
2018-11-25T09:50:45.059Z,100833.16
2018-11-25T09:51:50.550Z,100830.24
2018-11-25T09:52:56.067Z,100828.97
2018-11-25T09:54:01.554Z,100836.98
2018-11-25T09:55:10.043Z,100832.75
2018-11-25T09:56:15.616Z,100834.89
2018-11-25T09:57:21.206Z,100836.16
2018-11-25T09:58:26.742Z,100834.88
2018-11-25T09:59:32.243Z,100839.10
2018-11-25T10:00:37.759Z,100843.36
2018-11-25T10:01:43.219Z,100845.02
2018-11-25T10:02:48.769Z,100840.38
2018-11-25T10:03:54.538Z,100846.30
2018-11-25T10:05:00.063Z,100842.91
2018-11-25T10:06:05.847Z,100848.02
2018-11-25T10:07:11.401Z,100850.55
2018-11-25T10:08:16.891Z,100855.19
2018-11-25T10:09:22.430Z,100851.38
2018-11-25T10:10:28.174Z,100851.41
2018-11-25T10:11:33.712Z,100856.50
2018-11-25T10:12:39.126Z,100849.28
2018-11-25T10:13:45.829Z,100849.71
2018-11-25T10:14:51.290Z,100846.73
2018-11-25T10:15:56.803Z,100846.73
2018-11-25T10:17:02.296Z,100851.38
2018-11-25T10:18:08.062Z,100854.33
2018-11-25T10:19:13.552Z,100849.27
2018-11-25T10:20:21.591Z,100852.25
2018-11-25T10:21:27.415Z,100855.62
2018-11-25T10:22:32.887Z,100851.83
2018-11-25T10:23:38.366Z,100855.23
2018-11-25T10:24:43.910Z,100850.16
2018-11-25T10:25:49.386Z,100842.95
2018-11-25T10:26:54.896Z,100848.02
2018-11-25T10:28:00.570Z,100844.63
2018-11-25T10:29:06.090Z,100847.98
2018-11-25T10:30:21.687Z,100842.07
2018-11-25T10:31:27.250Z,100841.66
2018-11-25T10:32:32.825Z,100842.50
2018-11-25T10:33:38.395Z,100845.02
2018-11-25T10:34:44.033Z,100842.91
2018-11-25T10:35:49.446Z,100841.63
2018-11-25T10:36:55.117Z,100837.84
2018-11-25T10:38:00.694Z,100843.33
2018-11-25T10:39:09.634Z,100850.55
2018-11-25T10:40:18.639Z,100844.63
2018-11-25T10:41:24.143Z,100841.24
2018-11-25T10:42:29.686Z,100832.36
2018-11-25T10:43:35.275Z,100835.34
2018-11-25T10:44:40.906Z,100834.08
2018-11-25T10:45:46.462Z,100835.34
2018-11-25T10:46:51.882Z,100833.20
2018-11-25T10:47:58.417Z,100830.27
2018-11-25T10:49:04.026Z,100828.99
2018-11-25T10:50:12.863Z,100821.81
2018-11-25T10:51:18.306Z,100820.52
2018-11-25T10:52:23.742Z,100820.97
2018-11-25T10:53:29.333Z,100807.86
2018-11-25T10:54:34.870Z,100812.53
2018-11-25T10:55:40.395Z,100807.88
2018-11-25T10:56:45.956Z,100812.94
2018-11-25T10:57:53.129Z,100819.72
2018-11-25T10:58:58.634Z,100820.14
2018-11-25T11:00:06.037Z,100819.29
2018-11-25T11:01:16.783Z,100820.98
2018-11-25T11:02:57.763Z,100810.42
2018-11-25T11:04:03.297Z,100799.85
2018-11-25T11:05:09.426Z,100803.23
2018-11-25T11:06:20.105Z,100798.16
2018-11-25T11:07:30.886Z,100801.12
2018-11-25T11:08:36.439Z,100800.23
2018-11-25T11:09:41.967Z,100801.94
2018-11-25T11:10:47.689Z,100808.29
2018-11-25T11:11:53.171Z,100804.06
2018-11-25T11:12:59.060Z,100803.63
2018-11-25T11:14:04.559Z,100800.25
2018-11-25T11:15:12.280Z,100798.56
2018-11-25T11:16:17.886Z,100796.46
2018-11-25T11:17:23.473Z,100790.95
2018-11-25T11:18:28.898Z,100794.77
2018-11-25T11:19:34.374Z,100787.57
2018-11-25T11:20:39.829Z,100786.31
2018-11-25T11:21:45.518Z,100779.97
2018-11-25T11:22:50.944Z,100786.72
2018-11-25T11:23:56.520Z,100780.39
2018-11-25T11:25:02.134Z,100787.59
2018-11-25T11:26:13.242Z,100785.06
2018-11-25T11:27:18.784Z,100783.78
2018-11-25T11:28:24.312Z,100789.70
2018-11-25T11:29:29.827Z,100792.65
2018-11-25T11:30:35.419Z,100787.56
2018-11-25T11:31:40.995Z,100783.33
2018-11-25T11:32:48.892Z,100787.58
2018-11-25T11:33:54.324Z,100781.26
2018-11-25T11:34:59.746Z,100788.02
2018-11-25T11:36:05.366Z,100777.87
2018-11-25T11:37:10.867Z,100779.98
2018-11-25T11:38:16.302Z,100776.19
2018-11-25T11:39:21.843Z,100772.80
2018-11-25T11:40:27.458Z,100775.77
2018-11-25T11:41:32.975Z,100766.91
2018-11-25T11:42:38.483Z,100770.69
2018-11-25T11:43:44.013Z,100774.48
2018-11-25T11:44:49.562Z,100773.63
2018-11-25T11:45:55.010Z,100775.77
2018-11-25T11:47:00.525Z,100776.61
2018-11-25T11:48:06.343Z,100776.60
2018-11-25T11:49:11.911Z,100779.56
2018-11-25T11:50:20.291Z,100781.66
2018-11-25T11:51:27.344Z,100773.20
2018-11-25T11:52:31.340Z,100779.97
2018-11-25T11:53:36.817Z,100781.67
2018-11-25T11:54:42.298Z,100781.26
2018-11-25T11:55:47.752Z,100778.31
2018-11-25T11:56:53.266Z,100779.13
2018-11-25T11:57:58.902Z,100776.59
2018-11-25T11:59:04.524Z,100779.14
2018-11-25T12:00:18.983Z,100773.63
2018-11-25T12:01:24.450Z,100776.19
2018-11-25T12:02:31.654Z,100779.98
2018-11-25T12:03:35.623Z,100777.03
2018-11-25T12:04:41.030Z,100773.23
2018-11-25T12:05:46.527Z,100771.11
2018-11-25T12:06:52.103Z,100774.06
2018-11-25T12:07:57.591Z,100777.02
2018-11-25T12:09:03.246Z,100772.81
2018-11-25T12:10:16.446Z,100775.34
2018-11-25T12:11:21.975Z,100774.08
2018-11-25T12:12:27.443Z,100770.25
2018-11-25T12:13:32.887Z,100770.69
2018-11-25T12:14:38.623Z,100768.99
2018-11-25T12:15:44.141Z,100769.85
2018-11-25T12:16:49.675Z,100775.36
2018-11-25T12:17:55.214Z,100772.81
2018-11-25T12:19:00.721Z,100776.20
2018-11-25T12:20:07.182Z,100777.47
2018-11-25T12:21:12.753Z,100779.16
2018-11-25T12:22:18.217Z,100781.72
2018-11-25T12:23:23.725Z,100781.29
2018-11-25T12:24:29.230Z,100779.59
2018-11-25T12:25:34.958Z,100779.58
2018-11-25T12:26:40.439Z,100782.13
2018-11-25T12:27:46.197Z,100780.84
2018-11-25T12:28:51.731Z,100785.91
2018-11-25T12:29:57.156Z,100785.07
2018-11-25T12:31:02.814Z,100782.53
2018-11-25T12:32:08.234Z,100785.91
2018-11-25T12:33:14.019Z,100783.80